Latest Weather Observations for Dum In Mirrie

IDD60901

Issued at 4:25 pm CST Thursday 17 April 2014 (issued every 10 minutes, with the page automatically refreshed every 10 minutes)

About weather observations | Map of Darwin area stations | Latest observations for Darwin area | Other Formats
Station Details ID: 014277 Name: DUM IN MIRRIE AIRSTRIP Lat: -12.63 Lon: 130.37 Height: 3.5 m
Data from the previous 72 hours. | See also: Recent months at Dum In Mirrie
Date/Time
CST
Tmp

°C
App
Tmp
°C
Dew
Point
°C
Rel
Hum
%
Delta-T

°C
Wind Press
QNH
hPa
Press
MSL
hPa
Rain
since
9 am
mm
Dir
 
Spd
km/h
Gust
km/h
Spd
kts
Gust
kts
17/04:00pm 32.5 37.4 25.3 66 5.1 N 9 17 5 9 1007.6 - 0.0
17/03:30pm 32.0 35.9 24.3 63 5.4 N 11 19 6 10 1007.7 1007.7 0.0
17/03:00pm 32.2 36.9 25.0 65 5.1 N 9 17 5 9 1007.8 1007.8 0.0
17/02:30pm 32.4 36.7 23.6 59 6.1 NNE 7 19 4 10 1008.2 1008.2 0.0
17/02:00pm 31.3 34.8 22.9 61 5.8 NE 9 13 5 7 1008.6 - 0.0
17/01:30pm 32.1 36.1 22.8 58 6.4 ENE 6 11 3 6 1008.9 1008.9 0.0
17/01:00pm 31.0 34.6 22.3 60 5.9 ENE 7 11 4 6 1009.1 - 0.0
17/12:30pm 31.6 34.8 21.7 55 6.7 ENE 7 9 4 5 1009.5 1009.5 0.0
17/12:00pm 32.3 35.1 20.5 49 7.9 E 6 9 3 5 1009.9 1009.9 0.0
17/11:30am 32.1 35.3 21.3 53 7.3 E 6 9 3 5 1010.3 1010.3 0.0
17/11:00am 31.6 33.9 19.9 50 7.7 E 7 11 4 6 1010.6 - 0.0
17/10:30am 30.5 33.1 20.4 54 6.7 ESE 7 13 4 7 1010.8 1010.8 0.0
17/10:00am 29.5 31.3 19.5 55 6.5 ESE 9 15 5 8 1010.8 - 0.0
17/09:30am 28.6 30.6 19.2 56 6.1 SE 7 11 4 6 1010.8 1010.8 0.0
17/09:00am 27.9 29.8 18.9 58 5.8 SE 7 11 4 6 1010.5 1010.5 0.0
17/08:30am 27.4 30.3 21.0 68 4.2 SSE 7 11 4 6 1010.4 1010.4 0.0
17/08:00am 26.4 28.7 19.5 66 4.5 SSE 6 9 3 5 1010.2 - 0.0
17/07:30am 25.8 28.2 19.7 69 3.9 SSE 6 9 3 5 1010.0 1010.0 0.0
17/07:00am 25.5 27.9 19.6 70 3.8 S 6 9 3 5 1009.8 - 0.0
17/06:30am 24.6 28.2 21.3 82 2.2 S 4 6 2 3 1009.7 1009.7 0.0
17/06:00am 24.8 28.6 21.7 83 2.1 S 4 6 2 3 1009.4 1009.4 0.0
17/05:30am 25.6 31.1 24.7 95 0.6 SSW 4 9 2 5 1009.3 1009.3 0.0
17/05:00am 24.9 30.4 24.6 98 0.2 S 4 7 2 4 1009.0 - 0.0
17/04:30am 24.1 29.8 23.8 98 0.2 CALM 0 2 0 1 1008.9 1008.9 0.0
17/04:00am 23.8 29.0 23.5 98 0.2 WNW 2 4 1 2 1008.8 - 0.0
17/03:30am 23.9 29.5 23.6 98 0.2 CALM 0 2 0 1 1008.7 1008.7 0.0
17/03:00am 23.9 29.1 23.6 98 0.2 NW 2 4 1 2 1008.6 1008.6 0.0
17/02:30am 23.9 29.1 23.6 98 0.2 NNW 2 4 1 2 1008.8 1008.8 0.0
17/02:00am 24.2 29.6 23.9 98 0.2 NNW 2 4 1 2 1009.1 - 0.0
17/01:30am 24.3 29.8 24.0 98 0.2 NW 2 4 1 2 1009.4 1009.4 0.0
17/01:00am 24.1 29.3 23.6 97 0.3 NNW 2 4 1 2 1009.7 - 0.0
17/12:30am 24.4 29.7 23.7 96 0.5 NW 2 4 1 2 1009.9 1009.9 0.0
17/12:00am 24.6 30.0 23.9 96 0.5 NW 2 4 1 2 1010.0 1010.0 0.0
 
Date/Time
CST
Tmp

°C
App
Tmp
°C
Dew
Point
°C
Rel
Hum
%
Delta-T

°C
Wind Press
QNH
hPa
Press
MSL
hPa
Rain
since
9 am
mm
Dir
 
Spd
km/h
Gust
km/h
Spd
kts
Gust
kts
16/11:30pm 24.6 29.6 23.9 96 0.5 NW 4 4 2 2 1010.2 1010.2 0.0
16/11:00pm 25.0 30.8 24.5 97 0.3 NW 2 4 1 2 1010.3 - 0.0
16/10:30pm 24.9 30.1 24.2 96 0.5 WNW 4 4 2 2 1010.2 1010.2 0.0
16/10:00pm 24.7 29.6 23.7 94 0.7 NNW 4 6 2 3 1010.1 - 0.0
16/09:30pm 24.9 29.7 23.5 92 1.0 NNW 4 6 2 3 1009.8 1009.8 0.0
16/09:00pm 25.4 31.2 24.0 92 1.0 CALM 0 0 0 0 1009.6 1009.6 0.0
16/08:30pm 26.0 31.8 24.0 89 1.4 CALM 0 0 0 0 1009.2 1009.2 0.0
16/08:00pm 26.4 32.1 23.7 85 1.9 CALM 0 0 0 0 1008.9 - 0.0
16/07:30pm 27.7 33.5 24.5 83 2.2 N 2 4 1 2 1008.5 1008.5 0.0
16/07:00pm 28.1 32.9 23.5 76 3.2 NNW 4 6 2 3 1008.3 - 0.0
16/06:30pm 29.7 34.2 22.9 67 4.7 N 4 7 2 4 1008.1 1008.1 0.0
16/06:00pm 30.9 34.7 22.8 62 5.6 N 7 13 4 7 1007.9 1007.9 0.0
16/05:30pm 31.7 35.5 22.7 59 6.2 N 7 13 4 7 1007.6 1007.6 0.0
16/05:00pm 32.2 35.5 22.6 57 6.6 N 9 13 5 7 1007.2 - 0.0
16/04:30pm 33.9 33.9 16.3 35 11.1 ENE 11 19 6 10 1007.2 1007.2 0.0
16/04:00pm 34.1 34.4 16.9 36 11.0 E 11 20 6 11 1007.0 - 0.0
16/03:30pm 34.3 34.4 16.6 34 11.3 E 11 17 6 9 1007.2 1007.2 0.0
16/03:00pm 34.2 33.8 16.1 34 11.4 E 13 22 7 12 1007.3 1007.3 0.0
16/02:30pm 34.3 34.6 17.9 37 10.6 E 13 19 7 10 1007.6 1007.6 0.0
16/02:00pm 34.0 33.5 16.8 35 10.9 E 15 20 8 11 1008.0 - 0.0
16/01:30pm 33.9 34.1 17.6 38 10.5 E 13 22 7 12 1008.3 1008.3 0.0
16/01:00pm 33.2 34.0 18.2 41 9.7 E 11 19 6 10 1008.8 - 0.0
16/12:30pm 33.1 33.8 18.8 42 9.3 E 13 20 7 11 1009.3 1009.3 0.0
16/12:00pm 32.6 32.6 18.0 41 9.4 E 15 20 8 11 1009.8 1009.8 0.0
16/11:30am 32.3 33.4 18.8 44 8.8 ESE 11 19 6 10 1010.4 1010.4 0.0
16/11:00am 31.7 33.2 19.0 47 8.3 ESE 9 17 5 9 1010.9 - 0.0
16/10:30am 30.8 33.1 19.5 51 7.4 SSE 6 13 3 7 1011.3 1011.3 0.0
16/10:00am 30.1 32.7 20.1 55 6.6 SE 6 9 3 5 1011.4 - 0.0
16/09:30am 28.9 32.3 20.9 62 5.3 SE 4 9 2 5 1011.4 1011.4 0.0
16/09:00am 28.2 31.0 20.5 63 5.1 SE 6 11 3 6 1011.2 1011.2 0.0
16/08:30am 27.4 30.8 21.0 68 4.2 SE 4 9 2 5 1011.0 1011.0 0.0
16/08:00am 26.5 32.1 24.9 91 1.1 SE 4 7 2 4 1010.9 - 0.0
16/07:30am 25.9 32.0 25.7 99 0.1 SSE 4 7 2 4 1010.6 1010.6 0.0
16/07:00am 24.5 29.7 24.2 98 0.2 SE 4 4 2 2 1010.3 - 0.0
16/06:30am 24.3 29.8 24.0 98 0.2 ESE 2 4 1 2 1010.0 1010.0 0.0
16/06:00am 24.6 29.9 24.3 98 0.2 ESE 4 4 2 2 1009.8 1009.8 0.0
16/05:30am 25.1 31.1 24.9 99 0.1 ESE 2 4 1 2 1009.7 1009.7 0.0
16/05:00am 24.5 29.7 24.2 98 0.2 ESE 4 6 2 3 1009.5 - 0.0
16/04:30am 24.6 29.9 24.3 98 0.2 SE 4 4 2 2 1009.5 1009.5 0.0
16/04:00am 24.3 29.8 24.0 98 0.2 ESE 2 2 1 1 1009.6 - 0.0
16/03:30am 24.4 29.5 24.1 98 0.2 E 4 4 2 2 1009.6 1009.6 0.0
16/03:00am 24.4 29.9 24.1 98 0.2 NE 2 4 1 2 1009.6 1009.6 0.0
16/02:30am 24.6 30.2 24.3 98 0.2 NNE 2 4 1 2 1009.5 1009.5 0.0
16/02:00am 24.5 30.0 24.0 97 0.3 NNE 2 4 1 2 1009.7 - 0.0
16/01:30am 24.8 30.4 24.3 97 0.3 NNE 2 2 1 1 1010.0 1010.0 0.0
16/01:00am 24.7 30.2 24.0 96 0.5 NNE 2 4 1 2 1010.3 - 0.0
16/12:30am 25.0 30.6 24.3 96 0.5 NNE 2 4 1 2 1010.5 1010.5 0.0
16/12:00am 25.2 30.8 24.3 95 0.6 NNE 2 4 1 2 1010.6 1010.6 0.0
 
Date/Time
CST
Tmp

°C
App
Tmp
°C
Dew
Point
°C
Rel
Hum
%
Delta-T

°C
Wind Press
QNH
hPa
Press
MSL
hPa
Rain
since
9 am
mm
Dir
 
Spd
km/h
Gust
km/h
Spd
kts
Gust
kts
15/11:30pm 25.3 31.0 24.4 95 0.6 NNE 2 4 1 2 1010.6 1010.6 0.0
15/11:00pm 25.7 32.0 24.7 94 0.7 CALM 0 0 0 0 1010.6 - 0.0
15/10:30pm 26.1 32.5 24.9 93 0.8 CALM 0 0 0 0 1010.7 1010.7 0.0
15/10:00pm 26.3 32.7 24.9 92 1.0 CALM 0 0 0 0 1010.7 - 0.0
15/09:30pm 26.4 32.7 24.8 91 1.1 CALM 0 2 0 1 1010.4 1010.4 0.0
15/09:00pm 26.8 32.4 24.8 89 1.4 NNE 4 6 2 3 1010.2 1010.2 0.0
15/08:30pm 27.6 32.5 24.4 83 2.2 NNE 6 7 3 4 1010.0 1010.0 0.0
15/08:00pm 27.1 32.1 23.8 82 2.3 N 4 4 2 2 1009.6 - 0.0
15/07:30pm 27.9 33.3 23.9 79 2.8 N 2 6 1 3 1009.2 1009.2 0.0
15/07:00pm 28.8 33.6 24.1 76 3.3 N 6 7 3 4 1008.8 - 0.0
15/06:30pm 29.5 34.2 23.9 72 3.9 N 6 9 3 5 1008.4 1008.4 0.0
15/06:00pm 30.0 34.1 22.2 63 5.3 ENE 4 15 2 8 1008.2 1008.2 0.0
15/05:30pm 32.4 35.2 19.6 46 8.4 SE 4 7 2 4 1008.0 1008.0 0.0
15/05:00pm 32.7 34.7 19.2 44 8.8 ESE 7 13 4 7 1007.7 - 0.0
15/04:30pm 32.9 35.1 19.7 45 8.7 E 7 11 4 6 1007.6 1007.6 0.0
15/04:00pm 33.3 35.2 19.7 44 9.0 E 9 15 5 8 1007.5 - 0.0
15/03:30pm 33.0 34.5 19.8 45 8.7 E 11 19 6 10 1007.7 1007.7 0.0
15/03:00pm 32.8 34.8 20.0 47 8.5 E 9 20 5 11 1007.8 1007.8 0.0
15/02:30pm 32.3 34.6 19.9 48 8.2 ESE 7 13 4 7 1008.0 1008.0 0.0
15/02:00pm 32.7 34.9 21.2 50 7.7 ESE 11 19 6 10 1008.2 - 0.0
15/01:30pm 32.3 34.5 21.2 52 7.5 ESE 11 20 6 11 1008.7 1008.7 0.0
15/01:00pm 32.2 35.2 22.0 55 6.9 ESE 9 17 5 9 1009.0 - 0.0
15/12:30pm 32.2 34.8 22.6 57 6.6 E 13 20 7 11 1009.7 1009.7 0.0
15/12:00pm 31.9 35.4 22.9 59 6.2 ESE 9 17 5 9 1010.1 1010.1 0.0
15/11:30am 31.1 34.6 23.5 64 5.3 ESE 11 20 6 11 1010.6 1010.6 0.0
15/11:00am 30.4 34.0 23.8 68 4.6 SE 11 20 6 11 1011.0 - 0.0
15/10:30am 29.5 33.2 23.9 72 3.9 SE 11 24 6 13 1011.1 1011.1 0.0
15/10:00am 27.8 32.6 24.4 82 2.4 SE 7 15 4 8 1011.3 - 0.0
15/09:30am 27.0 31.7 24.3 85 1.9 ESE 7 11 4 6 1011.2 1011.2 0.0
15/09:00am 27.1 33.2 25.1 89 1.4 SE 2 4 1 2 1010.9 1010.9 26.8
15/08:30am 26.8 32.3 24.6 88 1.5 SSE 4 9 2 5 1010.8 1010.8 26.8
15/08:00am 26.6 32.3 25.0 91 1.1 ESE 4 9 2 5 1010.6 - 26.8
15/07:30am 26.2 31.2 24.8 92 1.0 SE 7 15 4 8 1010.2 1010.2 26.8
15/07:00am 26.1 31.1 24.5 91 1.1 SE 6 11 3 6 1009.9 - 26.8
15/06:30am 26.1 30.8 24.3 90 1.2 SE 7 15 4 8 1009.5 1009.5 26.8
15/06:00am 26.6 32.0 25.2 92 1.0 ESE 6 9 3 5 1009.4 1009.4 26.8
15/05:30am 26.2 31.3 24.6 91 1.1 SE 6 9 3 5 1008.9 1008.9 26.8
15/05:00am 25.8 31.4 24.9 95 0.6 SE 4 7 2 4 1008.7 - 26.8
15/04:30am 25.5 30.5 24.5 94 0.7 ENE 6 7 3 4 1008.6 1008.6 26.8
15/04:00am 25.4 30.6 24.2 93 0.8 N 4 7 2 4 1008.7 - 26.8
15/03:30am 25.7 30.3 24.1 91 1.1 E 7 13 4 7 1009.2 1009.2 26.2
15/03:00am 25.3 28.2 22.4 84 1.9 N 11 15 6 8 1009.2 1009.2 26.2
15/02:30am 26.1 32.8 25.4 96 0.5 CALM 0 0 0 0 1009.4 1009.4 25.4
15/02:00am 26.2 32.8 25.2 94 0.7 CALM 0 0 0 0 1009.4 - 25.4
15/01:30am 26.3 32.2 24.7 91 1.1 SSE 2 6 1 3 1009.6 1009.6 25.4
15/01:00am 26.5 33.5 25.8 96 0.5 CALM 0 6 0 3 1009.9 - 25.4
15/12:30am 26.5 33.0 25.6 95 0.6 S 2 4 1 2 1010.1 1010.1 25.4
15/12:00am 26.4 32.7 25.4 94 0.7 S 2 4 1 2 1010.3 1010.3 25.4
 
Date/Time
CST
Tmp

°C
App
Tmp
°C
Dew
Point
°C
Rel
Hum
%
Delta-T

°C
Wind Press
QNH
hPa
Press
MSL
hPa
Rain
since
9 am
mm
Dir
 
Spd
km/h
Gust
km/h
Spd
kts
Gust
kts
14/11:30pm 26.4 32.4 25.5 95 0.6 SSE 4 7 2 4 1010.5 1010.5 25.4
14/11:00pm 26.1 31.5 25.2 95 0.6 SSE 6 9 3 5 1010.6 - 25.4
14/10:30pm 26.0 31.5 25.3 96 0.5 SSE 6 9 3 5 1010.5 1010.5 25.4
14/10:00pm 25.8 31.2 25.1 96 0.5 SE 6 11 3 6 1010.5 - 25.4
14/09:30pm 26.2 32.5 25.9 98 0.2 SE 4 7 2 4 1010.5 1010.5 25.4
14/09:00pm 26.3 33.4 26.0 98 0.2 CALM 0 2 0 1 1010.0 1010.0 25.4
14/08:30pm 26.1 32.4 25.9 99 0.1 NE 4 6 2 3 1009.8 1009.8 25.4
14/08:00pm 25.6 31.9 25.3 98 0.2 NNE 2 4 1 2 1009.5 - 25.4
14/07:30pm 25.1 30.7 24.8 98 0.2 NW 4 6 2 3 1008.9 1008.9 25.4
14/07:00pm 24.3 28.8 23.6 96 0.5 W 6 7 3 4 1008.8 - 25.2
14/06:30pm 24.7 28.8 23.3 92 1.0 ESE 7 11 4 6 1009.0 1009.0 20.6
14/06:00pm 27.1 31.5 24.4 85 1.9 S 9 20 5 11 1008.2 1008.2 1.0
14/05:30pm 28.8 34.7 25.4 82 2.4 N 4 7 2 4 1007.6 1007.6 1.0
14/05:00pm 29.7 35.2 24.6 74 3.6 N 4 7 2 4 1007.2 - 0.0
14/04:30pm 30.4 35.3 24.3 70 4.3 NW 6 9 3 5 1006.8 1006.8 0.0

Latest Capital City Observations: Canberra | Sydney | Melbourne | Brisbane | Adelaide | Perth | Hobart | Darwin

Other Formats:

Comma delimited format used in spreadsheet applications
http://www.bom.gov.au/fwo/IDD60901/IDD60901.94116.axf

JavaScript Object Notation format (JSON) in row-major order
http://www.bom.gov.au/fwo/IDD60901/IDD60901.94116.json